Wye Mills, MD (21679)

5:13 AM EST on January 17, 2017 (GMT -0500)
Governor Grason II/III | | Change Station
Active Advisory: Small Craft Advisory

Elev 13 ft 38.95 °N, 76.17 °W | Updated 17 minutes ago

Rain
Rain
39.7 °F
Feels Like 40 °F
N
0.0
Wind Variable Wind from SSE
Gusts 0.0 mph

Today
High -- | Low -- °F
--% Chance of Precip.
Yesterday
High -- | Low -- °F
Precip. -- in
Pressure 30.28 in
Visibility 7.0 miles
Clouds Clear
Windchill 40 °F
Dew Point 37 °F
Humidity 89%
Rainfall 0.05 in
Snow Depth Not available.
7:20 AM 5:08 PM
Waning Gibbous, 74% visible
METAR KESN 171012Z AUTO 00000KT 7SM CLR 05/03 A3028 RMK AO2 T00450030
Pressure 30.28 in
Visibility 7.0 miles
Clouds Clear
Windchill 40 °F
Dew Point 37 °F
Humidity 89%
Rainfall 0.05 in
Snow Depth Not available.
7:20 AM 5:08 PM
Waning Gibbous, 74% visible
METAR KESN 171012Z AUTO 00000KT 7SM CLR 05/03 A3028 RMK AO2 T00450030

Get Your Daily Forecast Email!

Thanks for signing up!

Be on the lookout for a verification email in your inbox.

You'll start receiving the daily forecast at 8 AM.

×

10-Day Weather Forecast

Almanac

Astronomy

Jan. 17, 2017 Rise Set
Actual Time
Civil Twilight
Nautical Twilight
Astronomical Twilight
Moon
Length of Visible Light
Length of Day
Tomorrow will be .
, % of the Moon is Illuminated

Today's Extremes

State Highs State Lows

Community

WunderPhotos

Upload Photos

1,962,540 photos uploaded!

WunderBlog® & News

Nearby

Air Quality

  Air Quality AQ Index Pollutant
Not available.

Snow Depth

Station Depth Elevation

Earthquake Activity

City Distance Mag. Time & Date
Minimum magnitude displayed is 2.5.

Coastal Water Temperatures

Place Temperature

Stations

Nearby Weather Stations

Station Location Temp. Windchill Dew Point Humidity Wind Precip. Elev Updated Type
                   

Watches & Warnings

Small Craft Advisory
Issued: 3:05 AM EST Jan. 17, 2017 – National Weather Service

... Small Craft Advisory in effect from 7 am to 6 PM EST
Wednesday...

The National Weather Service in Baltimore MD/Washington has
issued a Small Craft Advisory... which is in effect from 7 am to
6 PM EST Wednesday.

* Winds... 18 to 33 knots within the Small Craft Advisory.

Precautionary/preparedness actions...

A Small Craft Advisory means winds of 18 to 33 knots are imminent
or occurring. Boaters operating smaller vessels should avoid
navigating in these conditions.